sensor_id;sensor_type;location;lat;lon;timestamp;temperature;humidity
23685;DHT22;12020;51.384;6.908;2023-08-06T00:03:53;16.40;99.90
23685;DHT22;12020;51.384;6.908;2023-08-06T00:06:21;16.40;99.90
23685;DHT22;12020;51.384;6.908;2023-08-06T00:08:50;16.40;99.90
23685;DHT22;12020;51.384;6.908;2023-08-06T00:11:17;16.40;99.90
23685;DHT22;12020;51.384;6.908;2023-08-06T00:13:45;16.40;99.90
23685;DHT22;12020;51.384;6.908;2023-08-06T00:16:15;16.40;99.90
23685;DHT22;12020;51.384;6.908;2023-08-06T00:18:43;16.40;99.90
23685;DHT22;12020;51.384;6.908;2023-08-06T00:21:11;16.40;99.90
23685;DHT22;12020;51.384;6.908;2023-08-06T00:23:43;16.40;99.90
23685;DHT22;12020;51.384;6.908;2023-08-06T00:26:17;16.40;99.90
23685;DHT22;12020;51.384;6.908;2023-08-06T00:28:47;16.40;99.90
23685;DHT22;12020;51.384;6.908;2023-08-06T00:31:21;16.40;99.90
23685;DHT22;12020;51.384;6.908;2023-08-06T00:33:47;16.40;99.90
23685;DHT22;12020;51.384;6.908;2023-08-06T00:36:13;16.40;99.90
23685;DHT22;12020;51.384;6.908;2023-08-06T00:38:39;16.40;99.90
23685;DHT22;12020;51.384;6.908;2023-08-06T00:41:14;16.40;99.90
23685;DHT22;12020;51.384;6.908;2023-08-06T00:43:41;16.40;99.90
23685;DHT22;12020;51.384;6.908;2023-08-06T00:46:07;16.40;99.90
23685;DHT22;12020;51.384;6.908;2023-08-06T00:48:34;16.40;99.90
23685;DHT22;12020;51.384;6.908;2023-08-06T00:51:02;16.40;99.90
23685;DHT22;12020;51.384;6.908;2023-08-06T00:53:31;16.40;99.90
23685;DHT22;12020;51.384;6.908;2023-08-06T00:56:03;16.40;99.90
23685;DHT22;12020;51.384;6.908;2023-08-06T00:58:48;16.40;99.90
23685;DHT22;12020;51.384;6.908;2023-08-06T01:03:49;16.30;99.90
23685;DHT22;12020;51.384;6.908;2023-08-06T01:06:18;16.30;99.90
23685;DHT22;12020;51.384;6.908;2023-08-06T01:08:49;16.30;99.90
23685;DHT22;12020;51.384;6.908;2023-08-06T01:14:13;16.20;99.90
23685;DHT22;12020;51.384;6.908;2023-08-06T01:16:46;16.20;99.90
23685;DHT22;12020;51.384;6.908;2023-08-06T01:19:21;16.20;99.90
23685;DHT22;12020;51.384;6.908;2023-08-06T01:21:56;16.20;99.90
23685;DHT22;12020;51.384;6.908;2023-08-06T01:24:28;16.20;99.90
23685;DHT22;12020;51.384;6.908;2023-08-06T01:26:57;16.10;99.90
23685;DHT22;12020;51.384;6.908;2023-08-06T01:29:32;16.20;99.90
23685;DHT22;12020;51.384;6.908;2023-08-06T01:34:32;16.20;99.90
23685;DHT22;12020;51.384;6.908;2023-08-06T01:39:32;16.20;99.90
23685;DHT22;12020;51.384;6.908;2023-08-06T01:41:58;16.20;99.90
23685;DHT22;12020;51.384;6.908;2023-08-06T01:44:27;16.20;99.90
23685;DHT22;12020;51.384;6.908;2023-08-06T01:46:57;16.20;99.90
23685;DHT22;12020;51.384;6.908;2023-08-06T01:49:25;16.20;99.90
23685;DHT22;12020;51.384;6.908;2023-08-06T01:51:58;16.20;99.90
23685;DHT22;12020;51.384;6.908;2023-08-06T01:54:25;16.30;99.90
23685;DHT22;12020;51.384;6.908;2023-08-06T01:56:53;16.20;99.90
23685;DHT22;12020;51.384;6.908;2023-08-06T01:59:21;16.20;99.90
23685;DHT22;12020;51.384;6.908;2023-08-06T02:01:46;16.20;99.90
23685;DHT22;12020;51.384;6.908;2023-08-06T02:04:13;16.20;99.90
23685;DHT22;12020;51.384;6.908;2023-08-06T02:06:47;16.20;99.90
23685;DHT22;12020;51.384;6.908;2023-08-06T02:09:13;16.20;99.90
23685;DHT22;12020;51.384;6.908;2023-08-06T02:11:41;16.30;99.90
23685;DHT22;12020;51.384;6.908;2023-08-06T02:14:11;16.30;99.90
23685;DHT22;12020;51.384;6.908;2023-08-06T02:16:39;16.20;99.90
23685;DHT22;12020;51.384;6.908;2023-08-06T02:22:09;16.20;99.90
23685;DHT22;12020;51.384;6.908;2023-08-06T02:24:35;16.30;99.90
23685;DHT22;12020;51.384;6.908;2023-08-06T02:29:41;16.30;99.90
23685;DHT22;12020;51.384;6.908;2023-08-06T02:32:18;16.30;99.90
23685;DHT22;12020;51.384;6.908;2023-08-06T02:37:34;16.30;99.90
23685;DHT22;12020;51.384;6.908;2023-08-06T02:40:04;16.30;99.90
23685;DHT22;12020;51.384;6.908;2023-08-06T02:42:32;16.30;99.90
23685;DHT22;12020;51.384;6.908;2023-08-06T02:45:01;16.30;99.90
23685;DHT22;12020;51.384;6.908;2023-08-06T02:47:34;16.30;99.90
23685;DHT22;12020;51.384;6.908;2023-08-06T02:52:53;16.30;99.90
23685;DHT22;12020;51.384;6.908;2023-08-06T02:55:28;16.30;99.90
23685;DHT22;12020;51.384;6.908;2023-08-06T02:57:55;16.20;99.90
23685;DHT22;12020;51.384;6.908;2023-08-06T03:00:21;16.30;99.90
23685;DHT22;12020;51.384;6.908;2023-08-06T03:02:48;16.20;99.90
23685;DHT22;12020;51.384;6.908;2023-08-06T03:05:23;16.30;99.90
23685;DHT22;12020;51.384;6.908;2023-08-06T03:10:20;16.20;99.90
23685;DHT22;12020;51.384;6.908;2023-08-06T03:12:54;16.20;99.90
23685;DHT22;12020;51.384;6.908;2023-08-06T03:15:31;16.20;99.90
23685;DHT22;12020;51.384;6.908;2023-08-06T03:18:10;16.30;99.90
23685;DHT22;12020;51.384;6.908;2023-08-06T03:25:54;16.20;99.90
23685;DHT22;12020;51.384;6.908;2023-08-06T03:31:12;16.20;99.90
23685;DHT22;12020;51.384;6.908;2023-08-06T03:33:38;16.20;99.90
23685;DHT22;12020;51.384;6.908;2023-08-06T03:36:10;16.20;99.90
23685;DHT22;12020;51.384;6.908;2023-08-06T03:38:42;16.20;99.90
23685;DHT22;12020;51.384;6.908;2023-08-06T03:41:12;16.20;99.90
23685;DHT22;12020;51.384;6.908;2023-08-06T03:43:41;16.20;99.90
23685;DHT22;12020;51.384;6.908;2023-08-06T03:46:07;16.20;99.90
23685;DHT22;12020;51.384;6.908;2023-08-06T03:51:29;16.20;99.90
23685;DHT22;12020;51.384;6.908;2023-08-06T03:54:15;16.20;99.90
23685;DHT22;12020;51.384;6.908;2023-08-06T03:56:48;16.20;99.90
23685;DHT22;12020;51.384;6.908;2023-08-06T03:59:16;16.10;99.90
23685;DHT22;12020;51.384;6.908;2023-08-06T04:04:33;16.10;99.90
23685;DHT22;12020;51.384;6.908;2023-08-06T04:12:18;16.20;99.90
23685;DHT22;12020;51.384;6.908;2023-08-06T04:14:57;16.20;99.90
23685;DHT22;12020;51.384;6.908;2023-08-06T04:17:30;16.20;99.90
23685;DHT22;12020;51.384;6.908;2023-08-06T04:22:32;16.20;99.90
23685;DHT22;12020;51.384;6.908;2023-08-06T04:24:58;16.20;99.90
23685;DHT22;12020;51.384;6.908;2023-08-06T04:27:31;16.20;99.90
23685;DHT22;12020;51.384;6.908;2023-08-06T04:30:10;16.20;99.90
23685;DHT22;12020;51.384;6.908;2023-08-06T04:32:42;16.20;99.90
23685;DHT22;12020;51.384;6.908;2023-08-06T04:35:09;16.20;99.90
23685;DHT22;12020;51.384;6.908;2023-08-06T04:37:35;16.20;99.90
23685;DHT22;12020;51.384;6.908;2023-08-06T04:43:10;16.20;99.90
23685;DHT22;12020;51.384;6.908;2023-08-06T04:45:45;16.20;99.90
23685;DHT22;12020;51.384;6.908;2023-08-06T04:50:51;16.20;99.90
23685;DHT22;12020;51.384;6.908;2023-08-06T04:56:10;16.20;99.90
23685;DHT22;12020;51.384;6.908;2023-08-06T04:58:44;16.20;99.90
23685;DHT22;12020;51.384;6.908;2023-08-06T05:03:59;16.30;99.90
23685;DHT22;12020;51.384;6.908;2023-08-06T05:14:57;16.30;99.90
23685;DHT22;12020;51.384;6.908;2023-08-06T05:17:38;16.40;99.90
23685;DHT22;12020;51.384;6.908;2023-08-06T05:33:37;16.50;99.90
23685;DHT22;12020;51.384;6.908;2023-08-06T05:36:11;16.50;99.90
23685;DHT22;12020;51.384;6.908;2023-08-06T05:38:36;16.50;99.90
23685;DHT22;12020;51.384;6.908;2023-08-06T05:41:03;16.50;99.90
23685;DHT22;12020;51.384;6.908;2023-08-06T05:43:29;16.50;99.90
23685;DHT22;12020;51.384;6.908;2023-08-06T05:46:02;16.50;99.90
23685;DHT22;12020;51.384;6.908;2023-08-06T05:56:19;16.50;99.90
23685;DHT22;12020;51.384;6.908;2023-08-06T06:04:41;16.60;99.90
23685;DHT22;12020;51.384;6.908;2023-08-06T07:26:53;17.60;99.90
23685;DHT22;12020;51.384;6.908;2023-08-06T07:29:20;17.70;99.90
23685;DHT22;12020;51.384;6.908;2023-08-06T07:31:56;17.80;99.90
23685;DHT22;12020;51.384;6.908;2023-08-06T07:34:23;17.90;99.90
23685;DHT22;12020;51.384;6.908;2023-08-06T07:36:51;17.90;99.90
23685;DHT22;12020;51.384;6.908;2023-08-06T07:39:17;17.90;99.90
23685;DHT22;12020;51.384;6.908;2023-08-06T07:41:46;18.00;99.90
23685;DHT22;12020;51.384;6.908;2023-08-06T07:44:15;18.10;99.90
23685;DHT22;12020;51.384;6.908;2023-08-06T07:46:42;18.20;99.90
23685;DHT22;12020;51.384;6.908;2023-08-06T07:49:11;18.30;99.90
23685;DHT22;12020;51.384;6.908;2023-08-06T07:51:38;18.40;99.90
23685;DHT22;12020;51.384;6.908;2023-08-06T07:54:10;18.40;99.90
23685;DHT22;12020;51.384;6.908;2023-08-06T07:56:37;18.60;99.90
23685;DHT22;12020;51.384;6.908;2023-08-06T07:59:08;18.70;99.90
23685;DHT22;12020;51.384;6.908;2023-08-06T08:01:39;18.70;99.90
23685;DHT22;12020;51.384;6.908;2023-08-06T08:04:16;18.70;99.90
23685;DHT22;12020;51.384;6.908;2023-08-06T08:06:50;18.70;99.90
23685;DHT22;12020;51.384;6.908;2023-08-06T08:09:29;18.70;99.90
23685;DHT22;12020;51.384;6.908;2023-08-06T08:11:59;18.70;99.90
23685;DHT22;12020;51.384;6.908;2023-08-06T08:14:35;18.70;99.90
23685;DHT22;12020;51.384;6.908;2023-08-06T08:17:05;18.70;99.90
23685;DHT22;12020;51.384;6.908;2023-08-06T08:19:37;18.70;99.90
23685;DHT22;12020;51.384;6.908;2023-08-06T08:25:07;18.80;99.90
23685;DHT22;12020;51.384;6.908;2023-08-06T08:30:07;19.00;99.90
23685;DHT22;12020;51.384;6.908;2023-08-06T08:32:33;19.00;99.90
23685;DHT22;12020;51.384;6.908;2023-08-06T08:34:59;19.10;99.90
23685;DHT22;12020;51.384;6.908;2023-08-06T08:37:28;19.10;99.90
23685;DHT22;12020;51.384;6.908;2023-08-06T08:39:55;19.10;99.90
23685;DHT22;12020;51.384;6.908;2023-08-06T08:44:53;19.20;99.90
23685;DHT22;12020;51.384;6.908;2023-08-06T08:47:21;19.20;99.90
23685;DHT22;12020;51.384;6.908;2023-08-06T08:49:48;19.30;99.90
23685;DHT22;12020;51.384;6.908;2023-08-06T08:52:19;19.30;99.90
23685;DHT22;12020;51.384;6.908;2023-08-06T08:54:46;19.40;99.90
23685;DHT22;12020;51.384;6.908;2023-08-06T08:57:20;19.60;99.90
23685;DHT22;12020;51.384;6.908;2023-08-06T08:59:47;19.70;99.90
23685;DHT22;12020;51.384;6.908;2023-08-06T09:02:14;19.60;99.90
23685;DHT22;12020;51.384;6.908;2023-08-06T09:04:48;19.50;99.90
23685;DHT22;12020;51.384;6.908;2023-08-06T09:07:17;19.30;99.90
23685;DHT22;12020;51.384;6.908;2023-08-06T09:12:20;18.90;99.90
23685;DHT22;12020;51.384;6.908;2023-08-06T09:14:47;18.70;99.90
23685;DHT22;12020;51.384;6.908;2023-08-06T09:17:13;18.60;99.90
23685;DHT22;12020;51.384;6.908;2023-08-06T09:19:42;18.60;99.90
23685;DHT22;12020;51.384;6.908;2023-08-06T09:22:15;18.50;99.90
23685;DHT22;12020;51.384;6.908;2023-08-06T09:24:41;18.50;99.90
23685;DHT22;12020;51.384;6.908;2023-08-06T09:27:15;18.50;99.90
23685;DHT22;12020;51.384;6.908;2023-08-06T09:29:42;18.50;99.90
23685;DHT22;12020;51.384;6.908;2023-08-06T09:32:11;18.40;99.90
23685;DHT22;12020;51.384;6.908;2023-08-06T09:34:38;18.50;99.90
23685;DHT22;12020;51.384;6.908;2023-08-06T09:37:15;18.40;99.90
23685;DHT22;12020;51.384;6.908;2023-08-06T09:39:40;18.50;99.90
23685;DHT22;12020;51.384;6.908;2023-08-06T09:42:09;18.40;99.90
23685;DHT22;12020;51.384;6.908;2023-08-06T09:44:36;18.50;99.90
23685;DHT22;12020;51.384;6.908;2023-08-06T09:47:06;18.50;99.90
23685;DHT22;12020;51.384;6.908;2023-08-06T09:49:41;18.50;99.90
23685;DHT22;12020;51.384;6.908;2023-08-06T09:52:14;18.50;99.90
23685;DHT22;12020;51.384;6.908;2023-08-06T09:54:42;18.50;99.90
23685;DHT22;12020;51.384;6.908;2023-08-06T09:57:08;18.50;99.90
23685;DHT22;12020;51.384;6.908;2023-08-06T09:59:35;18.50;99.90
23685;DHT22;12020;51.384;6.908;2023-08-06T10:02:02;18.50;99.90
23685;DHT22;12020;51.384;6.908;2023-08-06T10:04:29;18.50;99.90
23685;DHT22;12020;51.384;6.908;2023-08-06T10:06:55;18.60;99.90
23685;DHT22;12020;51.384;6.908;2023-08-06T10:09:21;18.60;99.90
23685;DHT22;12020;51.384;6.908;2023-08-06T10:11:49;18.60;99.90
23685;DHT22;12020;51.384;6.908;2023-08-06T10:16:41;18.60;99.90
23685;DHT22;12020;51.384;6.908;2023-08-06T10:19:09;18.60;99.90
23685;DHT22;12020;51.384;6.908;2023-08-06T10:21:35;18.60;99.90
23685;DHT22;12020;51.384;6.908;2023-08-06T10:24:01;18.60;99.90
23685;DHT22;12020;51.384;6.908;2023-08-06T10:26:28;18.70;99.90
23685;DHT22;12020;51.384;6.908;2023-08-06T10:28:56;18.70;99.90
23685;DHT22;12020;51.384;6.908;2023-08-06T10:34:22;18.90;99.90
23685;DHT22;12020;51.384;6.908;2023-08-06T10:36:49;19.00;99.90
23685;DHT22;12020;51.384;6.908;2023-08-06T10:39:15;19.10;99.90
23685;DHT22;12020;51.384;6.908;2023-08-06T10:41:44;19.10;99.90
23685;DHT22;12020;51.384;6.908;2023-08-06T10:44:10;19.10;99.90
23685;DHT22;12020;51.384;6.908;2023-08-06T10:46:38;19.20;99.90
23685;DHT22;12020;51.384;6.908;2023-08-06T10:49:04;19.30;99.90
23685;DHT22;12020;51.384;6.908;2023-08-06T10:51:32;19.30;99.90
23685;DHT22;12020;51.384;6.908;2023-08-06T10:54:00;19.40;99.90
23685;DHT22;12020;51.384;6.908;2023-08-06T10:56:26;19.40;99.90
23685;DHT22;12020;51.384;6.908;2023-08-06T10:58:56;19.40;99.90
23685;DHT22;12020;51.384;6.908;2023-08-06T11:01:23;19.40;99.90
23685;DHT22;12020;51.384;6.908;2023-08-06T11:03:50;19.20;99.90
23685;DHT22;12020;51.384;6.908;2023-08-06T11:06:22;19.00;99.90
23685;DHT22;12020;51.384;6.908;2023-08-06T11:08:53;18.70;99.90
23685;DHT22;12020;51.384;6.908;2023-08-06T11:11:18;18.40;99.90
23685;DHT22;12020;51.384;6.908;2023-08-06T11:13:45;18.20;99.90
23685;DHT22;12020;51.384;6.908;2023-08-06T11:16:23;17.90;99.90
23685;DHT22;12020;51.384;6.908;2023-08-06T11:18:50;17.70;99.90
23685;DHT22;12020;51.384;6.908;2023-08-06T11:21:20;17.50;99.90
23685;DHT22;12020;51.384;6.908;2023-08-06T11:23:46;17.40;99.90
23685;DHT22;12020;51.384;6.908;2023-08-06T11:26:20;17.30;99.90
23685;DHT22;12020;51.384;6.908;2023-08-06T11:28:47;17.20;99.90
23685;DHT22;12020;51.384;6.908;2023-08-06T11:31:22;17.00;99.90
23685;DHT22;12020;51.384;6.908;2023-08-06T11:33:51;17.00;99.90
23685;DHT22;12020;51.384;6.908;2023-08-06T11:36:28;17.00;99.90
23685;DHT22;12020;51.384;6.908;2023-08-06T11:39:00;16.90;99.90
23685;DHT22;12020;51.384;6.908;2023-08-06T11:41:32;16.90;99.90
23685;DHT22;12020;51.384;6.908;2023-08-06T11:49:19;16.50;99.90
23685;DHT22;12020;51.384;6.908;2023-08-06T12:35:48;15.90;99.90
23685;DHT22;12020;51.384;6.908;2023-08-06T12:46:15;15.90;99.90
23685;DHT22;12020;51.384;6.908;2023-08-06T12:51:20;15.90;99.90
23685;DHT22;12020;51.384;6.908;2023-08-06T12:53:54;15.90;99.90
23685;DHT22;12020;51.384;6.908;2023-08-06T12:56:38;16.00;99.90
23685;DHT22;12020;51.384;6.908;2023-08-06T12:59:16;15.90;99.90
23685;DHT22;12020;51.384;6.908;2023-08-06T13:01:57;15.90;99.90
23685;DHT22;12020;51.384;6.908;2023-08-06T13:04:50;16.00;99.90
23685;DHT22;12020;51.384;6.908;2023-08-06T13:07:26;16.10;99.90
23685;DHT22;12020;51.384;6.908;2023-08-06T13:09:59;16.20;99.90
23685;DHT22;12020;51.384;6.908;2023-08-06T13:15:03;16.30;99.90
23685;DHT22;12020;51.384;6.908;2023-08-06T13:17:31;16.30;99.90
23685;DHT22;12020;51.384;6.908;2023-08-06T13:20:03;16.30;99.90
23685;DHT22;12020;51.384;6.908;2023-08-06T13:25:06;16.20;99.90
23685;DHT22;12020;51.384;6.908;2023-08-06T13:27:50;16.20;99.90
23685;DHT22;12020;51.384;6.908;2023-08-06T13:30:29;16.10;99.90
23685;DHT22;12020;51.384;6.908;2023-08-06T13:33:04;16.10;99.90
23685;DHT22;12020;51.384;6.908;2023-08-06T13:38:12;16.20;99.90
23685;DHT22;12020;51.384;6.908;2023-08-06T13:40:48;16.20;99.90
23685;DHT22;12020;51.384;6.908;2023-08-06T13:43:25;16.20;99.90
23685;DHT22;12020;51.384;6.908;2023-08-06T13:45:58;16.20;99.90
23685;DHT22;12020;51.384;6.908;2023-08-06T13:48:33;16.10;99.90
23685;DHT22;12020;51.384;6.908;2023-08-06T13:51:17;16.00;99.90
23685;DHT22;12020;51.384;6.908;2023-08-06T13:53:45;16.00;99.90
23685;DHT22;12020;51.384;6.908;2023-08-06T13:56:19;16.00;99.90
23685;DHT22;12020;51.384;6.908;2023-08-06T13:58:47;16.00;99.90
23685;DHT22;12020;51.384;6.908;2023-08-06T14:01:16;16.00;99.90
23685;DHT22;12020;51.384;6.908;2023-08-06T14:03:43;16.00;99.90
23685;DHT22;12020;51.384;6.908;2023-08-06T14:06:09;16.10;99.90
23685;DHT22;12020;51.384;6.908;2023-08-06T14:08:43;16.10;99.90
23685;DHT22;12020;51.384;6.908;2023-08-06T14:11:21;16.10;99.90
23685;DHT22;12020;51.384;6.908;2023-08-06T14:13:47;16.10;99.90
23685;DHT22;12020;51.384;6.908;2023-08-06T14:16:13;16.20;99.90
23685;DHT22;12020;51.384;6.908;2023-08-06T14:18:41;16.30;99.90
23685;DHT22;12020;51.384;6.908;2023-08-06T14:21:12;16.30;99.90
23685;DHT22;12020;51.384;6.908;2023-08-06T14:23:38;16.40;99.90
23685;DHT22;12020;51.384;6.908;2023-08-06T14:26:07;16.40;99.90
23685;DHT22;12020;51.384;6.908;2023-08-06T14:28:43;16.50;99.90
23685;DHT22;12020;51.384;6.908;2023-08-06T14:31:16;16.60;99.90
23685;DHT22;12020;51.384;6.908;2023-08-06T14:33:43;16.60;99.90
23685;DHT22;12020;51.384;6.908;2023-08-06T14:36:11;16.70;99.90
23685;DHT22;12020;51.384;6.908;2023-08-06T14:38:40;16.80;99.90
23685;DHT22;12020;51.384;6.908;2023-08-06T14:41:08;16.80;99.90
23685;DHT22;12020;51.384;6.908;2023-08-06T14:43:34;16.90;99.90
23685;DHT22;12020;51.384;6.908;2023-08-06T14:46:12;16.80;99.90
23685;DHT22;12020;51.384;6.908;2023-08-06T14:48:39;16.80;99.90
23685;DHT22;12020;51.384;6.908;2023-08-06T14:51:06;16.90;99.90
23685;DHT22;12020;51.384;6.908;2023-08-06T14:53:36;16.90;99.90
23685;DHT22;12020;51.384;6.908;2023-08-06T14:56:03;16.80;99.90
23685;DHT22;12020;51.384;6.908;2023-08-06T14:58:33;16.80;99.90
23685;DHT22;12020;51.384;6.908;2023-08-06T15:06:45;17.00;99.90
23685;DHT22;12020;51.384;6.908;2023-08-06T15:09:12;17.00;99.90
23685;DHT22;12020;51.384;6.908;2023-08-06T15:11:45;17.00;99.90
23685;DHT22;12020;51.384;6.908;2023-08-06T15:14:11;17.10;99.90
23685;DHT22;12020;51.384;6.908;2023-08-06T15:16:42;17.00;99.90
23685;DHT22;12020;51.384;6.908;2023-08-06T15:19:21;17.00;99.90
23685;DHT22;12020;51.384;6.908;2023-08-06T15:21:48;17.00;99.90
23685;DHT22;12020;51.384;6.908;2023-08-06T15:24:26;17.00;99.90
23685;DHT22;12020;51.384;6.908;2023-08-06T15:26:53;17.10;99.90
23685;DHT22;12020;51.384;6.908;2023-08-06T15:29:24;17.10;99.90
23685;DHT22;12020;51.384;6.908;2023-08-06T15:34:41;17.10;99.90
23685;DHT22;12020;51.384;6.908;2023-08-06T15:37:13;17.10;99.90
23685;DHT22;12020;51.384;6.908;2023-08-06T15:39:41;17.10;99.90
23685;DHT22;12020;51.384;6.908;2023-08-06T15:42:06;17.10;99.90
23685;DHT22;12020;51.384;6.908;2023-08-06T15:44:32;17.10;99.90
23685;DHT22;12020;51.384;6.908;2023-08-06T15:47:03;17.00;99.90
23685;DHT22;12020;51.384;6.908;2023-08-06T15:49:35;17.00;99.90
23685;DHT22;12020;51.384;6.908;2023-08-06T15:52:02;17.00;99.90
23685;DHT22;12020;51.384;6.908;2023-08-06T15:56:58;17.00;99.90
23685;DHT22;12020;51.384;6.908;2023-08-06T15:59:29;17.00;99.90
23685;DHT22;12020;51.384;6.908;2023-08-06T16:01:56;16.90;99.90
23685;DHT22;12020;51.384;6.908;2023-08-06T16:04:25;16.90;99.90
23685;DHT22;12020;51.384;6.908;2023-08-06T16:06:56;17.00;99.90
23685;DHT22;12020;51.384;6.908;2023-08-06T16:09:23;16.90;99.90
23685;DHT22;12020;51.384;6.908;2023-08-06T16:12:03;16.90;99.90
23685;DHT22;12020;51.384;6.908;2023-08-06T16:17:09;16.80;99.90
23685;DHT22;12020;51.384;6.908;2023-08-06T16:19:37;16.70;99.90
23685;DHT22;12020;51.384;6.908;2023-08-06T16:22:19;16.70;99.90
23685;DHT22;12020;51.384;6.908;2023-08-06T16:24:51;16.70;99.90
23685;DHT22;12020;51.384;6.908;2023-08-06T16:27:34;16.70;99.90
23685;DHT22;12020;51.384;6.908;2023-08-06T16:30:17;16.70;99.90
23685;DHT22;12020;51.384;6.908;2023-08-06T16:32:52;16.70;99.90
23685;DHT22;12020;51.384;6.908;2023-08-06T16:35:30;16.60;99.90
23685;DHT22;12020;51.384;6.908;2023-08-06T16:38:10;16.60;99.90
23685;DHT22;12020;51.384;6.908;2023-08-06T16:40:37;16.60;99.90
23685;DHT22;12020;51.384;6.908;2023-08-06T16:43:03;16.60;99.90
23685;DHT22;12020;51.384;6.908;2023-08-06T16:45:38;16.60;99.90
23685;DHT22;12020;51.384;6.908;2023-08-06T16:48:06;16.60;99.90
23685;DHT22;12020;51.384;6.908;2023-08-06T16:50:36;16.50;99.90
23685;DHT22;12020;51.384;6.908;2023-08-06T16:53:14;16.60;99.90
23685;DHT22;12020;51.384;6.908;2023-08-06T16:55:47;16.50;99.90
23685;DHT22;12020;51.384;6.908;2023-08-06T16:58:29;16.50;99.90
23685;DHT22;12020;51.384;6.908;2023-08-06T17:01:06;16.50;99.90
23685;DHT22;12020;51.384;6.908;2023-08-06T17:03:40;16.50;99.90
23685;DHT22;12020;51.384;6.908;2023-08-06T17:06:07;16.50;99.90
23685;DHT22;12020;51.384;6.908;2023-08-06T17:08:33;16.50;99.90
23685;DHT22;12020;51.384;6.908;2023-08-06T17:11:05;16.50;99.90
23685;DHT22;12020;51.384;6.908;2023-08-06T17:13:37;16.50;99.90
23685;DHT22;12020;51.384;6.908;2023-08-06T17:16:03;16.50;99.90
23685;DHT22;12020;51.384;6.908;2023-08-06T17:18:29;16.50;99.90
23685;DHT22;12020;51.384;6.908;2023-08-06T17:23:27;16.40;99.90
23685;DHT22;12020;51.384;6.908;2023-08-06T17:26:01;16.40;99.90
23685;DHT22;12020;51.384;6.908;2023-08-06T17:28:29;16.40;99.90
23685;DHT22;12020;51.384;6.908;2023-08-06T17:30:55;16.30;99.90
23685;DHT22;12020;51.384;6.908;2023-08-06T17:33:36;16.30;99.90
23685;DHT22;12020;51.384;6.908;2023-08-06T17:36:02;16.30;99.90
23685;DHT22;12020;51.384;6.908;2023-08-06T17:38:32;16.30;99.90
23685;DHT22;12020;51.384;6.908;2023-08-06T17:41:05;16.30;99.90
23685;DHT22;12020;51.384;6.908;2023-08-06T17:43:44;16.30;99.90
23685;DHT22;12020;51.384;6.908;2023-08-06T17:46:20;16.30;99.90
23685;DHT22;12020;51.384;6.908;2023-08-06T17:48:52;16.20;99.90
23685;DHT22;12020;51.384;6.908;2023-08-06T17:54:08;16.10;99.90
23685;DHT22;12020;51.384;6.908;2023-08-06T17:56:33;16.10;99.90
23685;DHT22;12020;51.384;6.908;2023-08-06T18:01:46;16.00;99.90
23685;DHT22;12020;51.384;6.908;2023-08-06T18:04:14;15.80;99.90
23685;DHT22;12020;51.384;6.908;2023-08-06T18:06:46;15.70;99.90
23685;DHT22;12020;51.384;6.908;2023-08-06T18:09:15;15.60;99.90
23685;DHT22;12020;51.384;6.908;2023-08-06T18:11:41;15.60;99.90
23685;DHT22;12020;51.384;6.908;2023-08-06T18:14:08;15.50;99.90
23685;DHT22;12020;51.384;6.908;2023-08-06T18:19:09;15.40;99.90
23685;DHT22;12020;51.384;6.908;2023-08-06T18:21:35;15.40;99.90
23685;DHT22;12020;51.384;6.908;2023-08-06T18:24:02;15.30;99.90
23685;DHT22;12020;51.384;6.908;2023-08-06T18:26:37;15.30;99.90
23685;DHT22;12020;51.384;6.908;2023-08-06T18:29:04;15.30;99.90
23685;DHT22;12020;51.384;6.908;2023-08-06T18:31:30;15.20;99.90
23685;DHT22;12020;51.384;6.908;2023-08-06T18:34:07;15.20;99.90
23685;DHT22;12020;51.384;6.908;2023-08-06T18:36:37;15.20;99.90
23685;DHT22;12020;51.384;6.908;2023-08-06T18:41:54;15.10;99.90
23685;DHT22;12020;51.384;6.908;2023-08-06T18:44:23;15.10;99.90
23685;DHT22;12020;51.384;6.908;2023-08-06T18:46:54;15.20;99.90
23685;DHT22;12020;51.384;6.908;2023-08-06T18:49:22;15.20;99.90
23685;DHT22;12020;51.384;6.908;2023-08-06T18:51:48;15.20;99.90
23685;DHT22;12020;51.384;6.908;2023-08-06T18:54:16;15.20;99.90
23685;DHT22;12020;51.384;6.908;2023-08-06T18:56:42;15.20;99.90
23685;DHT22;12020;51.384;6.908;2023-08-06T18:59:09;15.10;99.90
23685;DHT22;12020;51.384;6.908;2023-08-06T19:01:38;15.10;99.90
23685;DHT22;12020;51.384;6.908;2023-08-06T19:06:48;15.00;99.90
23685;DHT22;12020;51.384;6.908;2023-08-06T19:09:23;15.00;99.90
23685;DHT22;12020;51.384;6.908;2023-08-06T19:11:51;15.00;99.90
23685;DHT22;12020;51.384;6.908;2023-08-06T19:14:34;15.00;99.90
23685;DHT22;12020;51.384;6.908;2023-08-06T19:17:04;15.10;99.90
23685;DHT22;12020;51.384;6.908;2023-08-06T19:19:35;15.00;99.90
23685;DHT22;12020;51.384;6.908;2023-08-06T19:22:03;15.00;99.90
23685;DHT22;12020;51.384;6.908;2023-08-06T19:24:37;15.00;99.90
23685;DHT22;12020;51.384;6.908;2023-08-06T19:27:04;15.00;99.90
23685;DHT22;12020;51.384;6.908;2023-08-06T19:29:35;15.10;99.90
23685;DHT22;12020;51.384;6.908;2023-08-06T19:32:08;15.20;99.90
23685;DHT22;12020;51.384;6.908;2023-08-06T19:34:47;15.20;99.90
23685;DHT22;12020;51.384;6.908;2023-08-06T19:37:18;15.10;99.90
23685;DHT22;12020;51.384;6.908;2023-08-06T19:39:50;15.00;99.90
23685;DHT22;12020;51.384;6.908;2023-08-06T19:42:22;15.00;99.90
23685;DHT22;12020;51.384;6.908;2023-08-06T19:44:48;14.90;99.90
23685;DHT22;12020;51.384;6.908;2023-08-06T19:47:16;14.90;99.90
23685;DHT22;12020;51.384;6.908;2023-08-06T19:49:58;14.90;99.90
23685;DHT22;12020;51.384;6.908;2023-08-06T19:57:49;14.90;99.90
23685;DHT22;12020;51.384;6.908;2023-08-06T20:00:18;14.80;99.90
23685;DHT22;12020;51.384;6.908;2023-08-06T20:05:27;14.90;99.90
23685;DHT22;12020;51.384;6.908;2023-08-06T20:07:54;14.90;99.90
23685;DHT22;12020;51.384;6.908;2023-08-06T20:10:21;14.90;99.90
23685;DHT22;12020;51.384;6.908;2023-08-06T20:12:53;14.80;99.90
23685;DHT22;12020;51.384;6.908;2023-08-06T20:15:19;14.80;99.90
23685;DHT22;12020;51.384;6.908;2023-08-06T20:17:48;14.70;99.90
23685;DHT22;12020;51.384;6.908;2023-08-06T20:20:27;14.80;99.90
23685;DHT22;12020;51.384;6.908;2023-08-06T20:25:33;14.80;99.90
23685;DHT22;12020;51.384;6.908;2023-08-06T20:28:05;14.80;99.90
23685;DHT22;12020;51.384;6.908;2023-08-06T20:33:03;14.80;99.90
23685;DHT22;12020;51.384;6.908;2023-08-06T20:35:40;14.90;99.90
23685;DHT22;12020;51.384;6.908;2023-08-06T20:38:07;14.90;99.90
23685;DHT22;12020;51.384;6.908;2023-08-06T20:40:41;14.90;99.90
23685;DHT22;12020;51.384;6.908;2023-08-06T20:43:10;14.80;99.90
23685;DHT22;12020;51.384;6.908;2023-08-06T20:45:38;14.80;99.90
23685;DHT22;12020;51.384;6.908;2023-08-06T20:50:43;14.70;99.90
23685;DHT22;12020;51.384;6.908;2023-08-06T20:53:10;14.80;99.90